Denver International Airport
KDEN : now visible

Airfield :











YOU CAN JOIN US ON...

 
LOGIN :

Register | Disclaimer

   EN    FR    IT 

 









Legend :    VFR   Marginal VFR   IFR   Intensive IFR   Very Intensive IFR
Visi :
Ceiling :
>= 8 km
>= 3000ft
5 to 8 km
1000 to 3000 ft
1500m to 5 km
500 to 1000 ft
800 to 1500m
200 to 500 ft
< 800m
< 200 ft
Symbols :   Thunderstorms  Fog  Heavy snow  Heavy precipitations  Wind > 20 kt






- Airport Elevation : 5431 ft
- IATA code : DEN


KDEN - Denver International

CURRENT METAR :
  • 031253Z 26003KT 10SM BKN100 BKN150 BKN220 21/12 A3018 RMK AO2 SLP135 T02060122

EXPIRED METARs :
  • 031153Z 25005KT 10SM FEW110 BKN150 BKN220 19/11 A3018 RMK AO2 SLP131 T01940111 10217 20183 53000
  • 031053Z 28006KT 10SM BKN110 BKN220 21/10 A3017 RMK AO2 SLP125 T02110100

TAF KDEN
Valid from the 03 at 12:00 until the 04 at 18:00 UTC


031127Z 0312/0418 28007KT P6SM BKN110 BKN220
FM031400 VRB05KT P6SM BKN110 BKN220
FM031600 36009KT P6SM BKN110 BKN220
FM032200 32012G20KT P6SM VCTS BKN100CB OVC120
FM040200 29010KT P6SM VCSH BKN080 OVC100
FM040600 22010KT P6SM SCT080 BKN100
FM041200 VRB05KT P6SM BKN060 OVC080
KZDV FIR / North America



MET'MAP, your aeronautical weather chart ! - Copyright ORBIFLY December 2007 - Disclaimer

ORBIFLY MET'MAP TEAM :

Programming & Development : Alexandra Zaïnal
Concept & original design : Baudouin d'Aumeries
Assistance for programming : Marc-Olivier Méhu
Technical & hardware support : Manuel Goepfert

Contact : metmap@orbifly.com




SOURCES & CREDITS :

   NOAA       Earth
Advisory